Archival Weather

Vermilion Rgnl

Danville, Illinois (KDNV)

Report from: Tuesday, March 26, 2024 1:55 PM CDT
Current time: Sunday, July 14, 2024 4:58 AM CDT

Current weather – Weather history – Daily summaries
Weather forecast

Temperature8.4°C (47.1°F)
Wind chill3.8°C (38.9°F)
Dew point1.9°C (35.4°F)
Winds 22 kts (11.3 m/s, 25.3 mph) West-Southwest (240°)
Wind gusts 34 kts (17.5 m/s, 39.1 mph)
Visibility10 mi. (16.1 km)
Clouds Ceiling: Broken clouds 2,700 ft. (823 m)
Broken clouds 3,300 ft. (1,006 m)
Broken clouds 5,000 ft. (1,524 m)
Altimeter29.62 in.Hg (1003 mB)
Relative humidity64 %
Density altitude-339 ft. (-103 m)
Remarks Fully automated report
Automated weather observing station with precipitation discriminator
Flight conditions Marginal Visual Meteorological Conditions
Raw dataKDNV 261855Z AUTO 24022G34KT 10SM BKN027 BKN033 BKN050 08/02 A2962 RMK AO2 T00840019
An error has occurred. This application may no longer respond until reloaded. Reload 🗙